Time;durP1;ratioP1;P1;durP2;ratioP2;P2;SDS_P1;SDS_P2;PMS_P1;PMS_P2;Temp;Humidity;BMP_temperature;BMP_pressure;BME280_temperature;BME280_humidity;BME280_pressure;Samples;Min_cycle;Max_cycle;Signal;HPM_P1;HPM_P2
2022/04/10 00:01:32;;;;;;;8.00;3.97;;;3.60;99.90;;;;;;5072844;28;20028;-68
2022/04/10 00:03:58;;;;;;;4.70;2.80;;;3.60;99.90;;;;;;5054711;28;20451;-68
2022/04/10 00:06:25;;;;;;;4.90;2.67;;;3.80;99.90;;;;;;5086197;28;20035;-68
2022/04/10 00:08:50;;;;;;;5.68;3.30;;;3.70;99.90;;;;;;5092697;28;20052;-68
2022/04/10 00:11:17;;;;;;;8.70;3.83;;;3.80;99.90;;;;;;5092894;28;20042;-68
2022/04/10 00:13:42;;;;;;;9.95;4.82;;;3.90;99.90;;;;;;5092777;28;20048;-71
2022/04/10 00:16:08;;;;;;;9.50;5.18;;;3.60;99.90;;;;;;5092542;28;20035;-68
2022/04/10 00:18:37;;;;;;;11.48;5.18;;;3.60;99.90;;;;;;5092396;28;20506;-69
2022/04/10 00:21:04;;;;;;;9.00;5.38;;;3.60;99.90;;;;;;5092713;28;20028;-69
2022/04/10 00:23:31;;;;;;;12.13;5.53;;;3.60;99.90;;;;;;5092828;28;20071;-68
2022/04/10 00:25:57;;;;;;;11.00;5.78;;;3.70;99.90;;;;;;5092754;28;20051;-68
2022/04/10 00:28:23;;;;;;;24.42;12.43;;;3.60;99.90;;;;;;5092458;28;20130;-68
2022/04/10 00:30:49;;;;;;;18.50;10.10;;;3.60;99.90;;;;;;5092370;28;20042;-68
2022/04/10 00:33:15;;;;;;;12.73;5.53;;;3.70;99.90;;;;;;5092679;28;20481;-68
2022/04/10 00:35:41;;;;;;;12.45;6.15;;;3.60;99.90;;;;;;5092526;28;20036;-69
2022/04/10 00:38:07;;;;;;;8.25;3.90;;;3.60;99.90;;;;;;5092442;28;20117;-69
2022/04/10 00:40:33;;;;;;;7.68;3.28;;;3.70;99.90;;;;;;5092460;28;20036;-68
2022/04/10 00:42:59;;;;;;;7.20;3.28;;;3.70;99.90;;;;;;5073510;28;20512;-68
2022/04/10 00:45:25;;;;;;;4.40;2.67;;;3.60;99.90;;;;;;5093823;28;20123;-68
2022/04/10 00:47:51;;;;;;;4.03;2.40;;;3.30;99.90;;;;;;5096032;28;20039;-68
2022/04/10 00:50:18;;;;;;;5.50;2.70;;;3.20;99.90;;;;;;5095942;28;20036;-68
2022/04/10 00:52:47;;;;;;;7.05;3.22;;;3.10;99.90;;;;;;5096175;28;20036;-68
2022/04/10 00:55:15;;;;;;;10.18;4.50;;;2.90;99.90;;;;;;5096116;28;20134;-68
2022/04/10 00:57:40;;;;;;;33.38;10.10;;;2.90;99.90;;;;;;5095581;28;20048;-68
2022/04/10 01:00:10;;;;;;;28.55;10.63;;;2.80;99.90;;;;;;5095597;28;20030;-68
2022/04/10 01:02:36;;;;;;;26.10;7.82;;;2.60;99.90;;;;;;5095905;28;20054;-68
2022/04/10 01:05:04;;;;;;;11.10;4.57;;;2.70;99.90;;;;;;5095929;28;20032;-68
2022/04/10 01:07:31;;;;;;;9.02;3.83;;;2.60;99.90;;;;;;5095621;28;20052;-67
2022/04/10 01:09:57;;;;;;;7.40;3.92;;;2.50;99.90;;;;;;5092579;28;20043;-68
2022/04/10 01:12:23;;;;;;;4.43;2.88;;;2.50;99.90;;;;;;5095648;28;20048;-68
2022/04/10 01:14:51;;;;;;;4.65;2.72;;;2.60;99.90;;;;;;5095552;28;20043;-67
2022/04/10 01:17:17;;;;;;;4.28;2.85;;;2.60;99.90;;;;;;5087650;28;20047;-68
2022/04/10 01:19:47;;;;;;;7.40;2.50;;;2.70;99.90;;;;;;5057049;28;20581;-68
2022/04/10 01:22:31;;;;;;;4.13;2.17;;;2.90;99.90;;;;;;5075320;28;20044;-68
2022/04/10 01:24:58;;;;;;;5.78;2.58;;;3.00;99.90;;;;;;5075304;28;20574;-67
2022/04/10 01:27:24;;;;;;;3.95;2.30;;;3.00;99.90;;;;;;5074965;28;20047;-68
2022/04/10 01:29:50;;;;;;;4.07;2.30;;;3.10;99.90;;;;;;5074993;28;20438;-68
2022/04/10 01:32:15;;;;;;;6.32;2.63;;;3.20;99.90;;;;;;5074981;28;20388;-68
2022/04/10 01:34:42;;;;;;;4.32;2.78;;;3.10;99.90;;;;;;5074765;28;20071;-67
2022/04/10 01:37:08;;;;;;;6.20;2.65;;;2.90;99.90;;;;;;5074742;28;20040;-68
2022/04/10 01:39:35;;;;;;;6.50;2.25;;;2.80;99.90;;;;;;5074294;28;20045;-68
2022/04/10 01:42:00;;;;;;;4.90;3.03;;;2.90;99.90;;;;;;5074681;28;20040;-68
2022/04/10 01:44:26;;;;;;;9.75;3.90;;;2.80;99.90;;;;;;5074775;28;20492;-68
2022/04/10 01:46:52;;;;;;;8.68;4.25;;;2.80;99.90;;;;;;5074930;28;20047;-67
2022/04/10 01:49:18;;;;;;;7.72;3.92;;;2.80;99.90;;;;;;5074837;28;20056;-67
2022/04/10 01:51:44;;;;;;;4.93;3.22;;;2.70;99.90;;;;;;5074701;28;20041;-68
2022/04/10 01:54:10;;;;;;;4.65;2.83;;;2.80;99.90;;;;;;5074623;28;20040;-68
2022/04/10 01:56:36;;;;;;;4.28;2.20;;;2.60;99.90;;;;;;5074632;28;20047;-68
2022/04/10 01:59:02;;;;;;;6.95;3.15;;;2.80;99.90;;;;;;5074419;28;20063;-67
2022/04/10 02:01:28;;;;;;;6.22;2.40;;;2.70;99.90;;;;;;5074492;28;20047;-68
2022/04/10 02:03:54;;;;;;;3.88;2.42;;;2.60;99.90;;;;;;5074456;28;20044;-67
2022/04/10 02:06:21;;;;;;;4.30;2.88;;;2.80;99.90;;;;;;5074325;28;20041;-67
2022/04/10 02:08:47;;;;;;;5.75;3.15;;;2.80;99.90;;;;;;5074202;28;20457;-67
2022/04/10 02:11:16;;;;;;;5.55;3.70;;;2.80;99.90;;;;;;5074154;28;20090;-67
2022/04/10 02:13:43;;;;;;;5.93;3.75;;;2.70;99.90;;;;;;5074080;28;20068;-68
2022/04/10 02:16:17;;;;;;;7.82;3.92;;;2.50;99.90;;;;;;5074014;28;20144;-68
2022/04/10 02:18:44;;;;;;;8.65;4.05;;;2.40;99.90;;;;;;5074035;28;20041;-67
2022/04/10 02:21:10;;;;;;;5.70;3.97;;;2.30;99.90;;;;;;5056343;28;20590;-67
2022/04/10 02:23:37;;;;;;;9.18;4.75;;;2.30;99.90;;;;;;5074116;28;20041;-67
2022/04/10 02:26:03;;;;;;;6.07;4.03;;;2.30;99.90;;;;;;5074007;28;20119;-67
2022/04/10 02:28:30;;;;;;;6.55;3.53;;;2.30;99.90;;;;;;5073982;28;20155;-68
2022/04/10 02:30:56;;;;;;;8.65;3.70;;;2.20;99.90;;;;;;5073950;28;20135;-67
2022/04/10 02:33:23;;;;;;;6.88;3.42;;;2.20;99.90;;;;;;5073768;28;20032;-67
2022/04/10 02:35:49;;;;;;;6.53;3.53;;;2.30;99.90;;;;;;5073649;28;20507;-67
2022/04/10 02:38:16;;;;;;;7.57;3.30;;;2.30;99.90;;;;;;5073808;28;20055;-68
2022/04/10 02:40:43;;;;;;;5.70;3.45;;;2.30;99.90;;;;;;5073704;28;20044;-67
2022/04/10 02:43:14;;;;;;;6.30;3.53;;;2.30;99.90;;;;;;5073968;28;20131;-67
2022/04/10 02:45:42;;;;;;;5.40;3.00;;;2.50;99.90;;;;;;5073667;28;20048;-71
2022/04/10 02:48:09;;;;;;;7.90;3.13;;;2.70;99.90;;;;;;5073434;28;20055;-71
2022/04/10 02:50:39;;;;;;;6.00;2.80;;;2.80;99.90;;;;;;5073282;28;20044;-67
2022/04/10 02:53:07;;;;;;;4.93;2.78;;;2.50;99.90;;;;;;5073517;28;20129;-67
2022/04/10 02:55:33;;;;;;;5.32;3.00;;;2.50;99.90;;;;;;5073404;28;20154;-67
2022/04/10 02:57:59;;;;;;;5.57;3.00;;;2.30;99.90;;;;;;5073340;28;20038;-67
2022/04/10 03:00:25;;;;;;;4.82;3.03;;;2.30;99.90;;;;;;5073406;28;20127;-68
2022/04/10 03:02:50;;;;;;;6.20;3.17;;;2.30;99.90;;;;;;5073607;28;20116;-68
2022/04/10 03:05:16;;;;;;;4.28;2.55;;;2.20;99.90;;;;;;5073307;28;20495;-67
2022/04/10 03:07:42;;;;;;;5.20;2.60;;;2.30;99.90;;;;;;5072787;28;20434;-67
2022/04/10 03:10:08;;;;;;;4.07;2.75;;;2.00;99.90;;;;;;5073055;28;20526;-68
2022/04/10 03:12:34;;;;;;;3.05;2.55;;;2.00;99.90;;;;;;5073391;28;20033;-71
2022/04/10 03:15:00;;;;;;;3.80;2.80;;;2.00;99.90;;;;;;5073064;28;20408;-67
2022/04/10 03:17:25;;;;;;;3.85;2.65;;;2.10;99.90;;;;;;5073073;28;20051;-67
2022/04/10 03:19:51;;;;;;;2.67;2.33;;;2.10;99.90;;;;;;5073167;28;20098;-67
2022/04/10 03:22:17;;;;;;;5.07;2.60;;;2.10;99.90;;;;;;5073154;28;20538;-67
2022/04/10 03:24:43;;;;;;;5.20;2.90;;;2.20;99.90;;;;;;5073110;28;20419;-67
2022/04/10 03:27:09;;;;;;;5.18;3.00;;;2.20;99.90;;;;;;5072992;28;20162;-67
2022/04/10 03:29:34;;;;;;;5.32;3.00;;;2.10;99.90;;;;;;5073057;28;20044;-71
2022/04/10 03:32:00;;;;;;;5.05;2.88;;;1.90;99.90;;;;;;5054953;28;20040;-67
2022/04/10 03:34:26;;;;;;;4.50;2.47;;;1.90;99.90;;;;;;5072943;28;20154;-67
2022/04/10 03:36:52;;;;;;;4.97;3.00;;;1.80;99.90;;;;;;5072949;28;20407;-68
2022/04/10 03:39:17;;;;;;;2.72;2.40;;;1.80;99.90;;;;;;5072988;28;20036;-67
2022/04/10 03:41:43;;;;;;;4.10;2.78;;;1.80;99.90;;;;;;5072813;28;20515;-67
2022/04/10 03:44:09;;;;;;;3.90;3.10;;;1.80;99.90;;;;;;5072760;28;20043;-67
2022/04/10 03:46:34;;;;;;;5.43;2.72;;;1.90;99.90;;;;;;5072793;28;20072;-69
2022/04/10 03:49:00;;;;;;;5.78;2.70;;;2.10;99.90;;;;;;5072795;28;20048;-68
2022/04/10 03:51:26;;;;;;;3.97;2.80;;;1.80;99.90;;;;;;5072852;28;20051;-68
2022/04/10 03:53:52;;;;;;;5.15;2.42;;;1.60;99.90;;;;;;5072776;28;20880;-68
2022/04/10 03:56:17;;;;;;;4.57;2.95;;;1.50;99.90;;;;;;5072806;28;20044;-67
2022/04/10 03:58:43;;;;;;;5.43;3.00;;;1.70;99.90;;;;;;5072634;28;20113;-67
2022/04/10 04:01:11;;;;;;;5.85;2.75;;;1.80;99.90;;;;;;5072483;28;20115;-67
2022/04/10 04:03:38;;;;;;;4.00;2.75;;;1.70;99.90;;;;;;5072819;28;20050;-68
2022/04/10 04:06:04;;;;;;;2.88;2.53;;;1.70;99.90;;;;;;5072630;28;20048;-68
2022/04/10 04:08:29;;;;;;;4.22;2.50;;;1.80;99.90;;;;;;5072694;28;20040;-67
2022/04/10 04:10:55;;;;;;;5.38;2.85;;;1.80;99.90;;;;;;5072681;28;20036;-67
2022/04/10 04:13:21;;;;;;;4.43;2.72;;;1.90;99.90;;;;;;5072367;28;20033;-68
2022/04/10 04:15:47;;;;;;;3.45;2.50;;;1.90;99.90;;;;;;5072428;28;20067;-67
2022/04/10 04:18:13;;;;;;;4.78;3.00;;;1.80;99.90;;;;;;5072625;28;20132;-67
2022/04/10 04:20:39;;;;;;;5.53;3.10;;;1.80;99.90;;;;;;5074711;28;20182;-67
2022/04/10 04:23:04;;;;;;;5.28;2.40;;;1.80;99.90;;;;;;5076422;28;20064;-68
2022/04/10 04:25:31;;;;;;;4.75;2.50;;;1.90;99.90;;;;;;5076484;28;20041;-67
2022/04/10 04:27:57;;;;;;;7.85;2.80;;;1.80;99.90;;;;;;5076181;28;20044;-67
2022/04/10 04:30:23;;;;;;;7.78;3.53;;;1.70;99.90;;;;;;5076189;28;20167;-68
2022/04/10 04:32:50;;;;;;;4.78;2.90;;;1.70;99.90;;;;;;5076200;28;20044;-68
2022/04/10 04:35:16;;;;;;;3.80;2.97;;;1.60;99.90;;;;;;5076149;28;20090;-67
2022/04/10 04:37:42;;;;;;;5.90;2.60;;;1.70;99.90;;;;;;5076196;28;20062;-68
2022/04/10 04:40:09;;;;;;;4.35;2.70;;;1.60;99.90;;;;;;5076143;28;20028;-68
2022/04/10 04:42:35;;;;;;;4.93;2.90;;;1.70;99.90;;;;;;5057983;28;20507;-67
2022/04/10 04:45:01;;;;;;;5.70;3.28;;;1.80;99.90;;;;;;5075582;28;20086;-67
2022/04/10 04:47:27;;;;;;;4.05;2.97;;;1.80;99.90;;;;;;5075909;28;20039;-67
2022/04/10 04:49:54;;;;;;;3.20;2.20;;;1.90;99.90;;;;;;5075982;28;20056;-67
2022/04/10 04:52:20;;;;;;;4.22;3.42;;;1.80;99.90;;;;;;5075734;28;20041;-67
2022/04/10 04:54:46;;;;;;;4.63;2.75;;;1.80;99.90;;;;;;5075637;28;20036;-70
2022/04/10 04:57:11;;;;;;;3.65;2.70;;;2.00;99.90;;;;;;5075480;28;20037;-68
2022/04/10 04:59:37;;;;;;;3.78;2.50;;;2.10;99.90;;;;;;5075377;28;20105;-67
2022/04/10 05:02:03;;;;;;;4.25;2.47;;;2.20;99.90;;;;;;5075448;28;20036;-68
2022/04/10 05:04:29;;;;;;;4.70;2.67;;;2.20;99.90;;;;;;5075500;28;20040;-67
2022/04/10 05:06:54;;;;;;;6.82;2.70;;;2.20;99.90;;;;;;5075256;28;20046;-68
2022/04/10 05:09:20;;;;;;;7.00;2.70;;;1.90;99.90;;;;;;5074948;28;20066;-68
2022/04/10 05:11:46;;;;;;;4.82;2.63;;;1.90;99.90;;;;;;5075244;28;20525;-69
2022/04/10 05:14:11;;;;;;;4.85;2.47;;;1.80;99.90;;;;;;5075169;28;20054;-67
2022/04/10 05:16:37;;;;;;;5.88;2.88;;;1.70;99.90;;;;;;5075082;28;20120;-68
2022/04/10 05:19:03;;;;;;;6.30;2.95;;;1.80;99.90;;;;;;5074931;28;20056;-67
2022/04/10 05:21:29;;;;;;;3.20;2.72;;;1.80;99.90;;;;;;5075081;28;20029;-67
2022/04/10 05:23:54;;;;;;;4.53;2.88;;;1.80;99.90;;;;;;5075292;28;20071;-70
2022/04/10 05:26:20;;;;;;;3.28;2.83;;;1.90;99.90;;;;;;5075125;28;20555;-68
2022/04/10 05:28:46;;;;;;;4.30;2.33;;;2.00;99.90;;;;;;5075067;28;20056;-68
2022/04/10 05:31:11;;;;;;;4.13;2.95;;;2.10;99.90;;;;;;5074859;28;20037;-72
2022/04/10 05:33:37;;;;;;;5.68;3.15;;;2.20;99.90;;;;;;5075200;28;20051;-68
2022/04/10 05:36:03;;;;;;;7.63;2.95;;;2.20;99.90;;;;;;5075165;28;20040;-69
2022/04/10 05:38:29;;;;;;;4.75;2.78;;;2.40;99.90;;;;;;5075066;28;20484;-68
2022/04/10 05:40:55;;;;;;;5.47;3.05;;;2.40;99.90;;;;;;5074971;28;20043;-68
2022/04/10 05:43:21;;;;;;;5.22;2.65;;;2.20;99.90;;;;;;5074566;28;20051;-67
2022/04/10 05:45:48;;;;;;;5.10;2.63;;;2.20;99.90;;;;;;5074724;28;20419;-68
2022/04/10 05:48:14;;;;;;;5.05;2.63;;;2.40;99.90;;;;;;5085605;28;20044;-68
2022/04/10 05:50:40;;;;;;;5.32;2.90;;;2.50;99.90;;;;;;5094978;28;20028;-68
2022/04/10 05:53:06;;;;;;;3.63;2.35;;;2.70;99.90;;;;;;5094911;28;20131;-68
2022/04/10 05:55:32;;;;;;;7.75;2.83;;;2.60;99.90;;;;;;5094955;28;20035;-68
2022/04/10 05:57:58;;;;;;;5.63;2.47;;;2.60;99.90;;;;;;5094653;28;20119;-68
2022/04/10 06:00:24;;;;;;;3.47;2.08;;;2.80;99.90;;;;;;5094714;28;20111;-69
2022/04/10 06:02:50;;;;;;;3.65;2.20;;;3.00;99.90;;;;;;5094526;28;20036;-68
2022/04/10 06:05:18;;;;;;;5.50;2.38;;;2.90;99.90;;;;;;5094469;28;20131;-68
2022/04/10 06:07:44;;;;;;;6.07;2.78;;;2.90;99.90;;;;;;5094580;28;20457;-69
2022/04/10 06:10:10;;;;;;;3.85;2.83;;;3.00;99.90;;;;;;5094555;28;20044;-69
2022/04/10 06:12:36;;;;;;;3.85;2.83;;;3.20;99.90;;;;;;5094660;28;20062;-70
2022/04/10 06:15:03;;;;;;;4.13;2.75;;;3.90;99.90;;;;;;5094592;28;20048;-68
2022/04/10 06:17:30;;;;;;;3.25;2.35;;;4.30;99.90;;;;;;5094575;28;20043;-68
2022/04/10 06:19:57;;;;;;;6.38;2.42;;;4.70;99.90;;;;;;5094548;28;20036;-69
2022/04/10 06:22:23;;;;;;;3.70;2.65;;;4.90;99.90;;;;;;5094277;28;20040;-69
2022/04/10 06:24:53;;;;;;;4.07;2.47;;;5.10;99.90;;;;;;5094209;28;20513;-74
2022/04/10 06:27:20;;;;;;;3.25;2.38;;;4.70;99.90;;;;;;5075924;28;20253;-69
2022/04/10 06:29:47;;;;;;;4.07;2.40;;;4.80;99.90;;;;;;5094430;28;20112;-74
2022/04/10 06:32:13;;;;;;;4.75;3.20;;;5.20;99.90;;;;;;5094237;28;20125;-69
2022/04/10 06:34:39;;;;;;;5.07;3.35;;;5.80;99.90;;;;;;5094275;28;20514;-69
2022/04/10 06:37:07;;;;;;;6.03;4.10;;;6.10;99.90;;;;;;5094148;28;20039;-69
2022/04/10 06:39:34;;;;;;;7.10;3.85;;;6.20;99.90;;;;;;5094089;28;20036;-69
2022/04/10 06:41:59;;;;;;;4.60;3.78;;;6.40;99.90;;;;;;5093704;28;20521;-70
2022/04/10 06:44:25;;;;;;;6.97;3.47;;;6.40;99.90;;;;;;5093595;28;20036;-69
2022/04/10 06:46:51;;;;;;;8.68;5.75;;;6.60;99.90;;;;;;5075982;28;20522;-69
2022/04/10 06:49:18;;;;;;;14.00;8.48;;;6.80;99.90;;;;;;5093878;28;20040;-69
2022/04/10 06:51:43;;;;;;;19.30;13.10;;;7.10;99.90;;;;;;5093919;28;20739;-73
2022/04/10 06:54:09;;;;;;;5.80;3.90;;;7.40;99.90;;;;;;5093602;28;20074;-70
2022/04/10 06:56:35;;;;;;;7.45;4.53;;;7.70;99.90;;;;;;5093652;28;20032;-70
2022/04/10 06:59:01;;;;;;;5.20;3.92;;;8.00;99.90;;;;;;5094016;28;20040;-70
2022/04/10 07:01:27;;;;;;;6.25;4.30;;;8.10;99.90;;;;;;5093672;28;20039;-70
2022/04/10 07:03:53;;;;;;;5.75;4.25;;;8.20;99.90;;;;;;5093540;28;20040;-70
2022/04/10 07:06:19;;;;;;;6.65;4.10;;;8.10;99.90;;;;;;5075622;28;20046;-70
2022/04/10 07:08:44;;;;;;;15.55;9.55;;;8.30;99.90;;;;;;5075144;28;20131;-74
2022/04/10 07:11:10;;;;;;;31.08;19.75;;;8.60;99.90;;;;;;5093531;28;20043;-71
2022/04/10 07:13:36;;;;;;;15.20;8.00;;;8.40;99.90;;;;;;5075298;28;20100;-71
2022/04/10 07:16:02;;;;;;;14.93;9.43;;;8.20;99.90;;;;;;5093329;28;20575;-71
2022/04/10 07:18:28;;;;;;;12.65;6.50;;;8.50;99.90;;;;;;5093289;28;20040;-71
2022/04/10 07:20:53;;;;;;;9.73;5.47;;;8.10;99.90;;;;;;5093292;28;20071;-73
2022/04/10 07:23:44;;;;;;;27.80;15.35;;;7.90;99.90;;;;;;5093193;28;20070;-72
2022/04/10 07:26:11;;;;;;;22.77;13.90;;;8.00;99.90;;;;;;5093179;28;20052;-71
2022/04/10 07:28:40;;;;;;;20.02;11.55;;;8.30;99.90;;;;;;5092903;28;20051;-72
2022/04/10 07:31:08;;;;;;;6.75;4.93;;;8.70;99.90;;;;;;5093111;28;20055;-72
2022/04/10 07:33:34;;;;;;;10.85;6.53;;;8.80;99.90;;;;;;5093204;28;20039;-71
2022/04/10 07:36:00;;;;;;;10.82;7.20;;;;;;;;;;5093094;28;20032;-72
2022/04/10 07:38:26;;;;;;;6.80;4.30;;;9.60;99.90;;;;;;5093052;28;20446;-70
2022/04/10 07:40:52;;;;;;;16.55;10.32;;;8.90;99.90;;;;;;5074811;28;20032;-71
2022/04/10 07:43:18;;;;;;;9.68;5.13;;;9.00;99.90;;;;;;5093042;28;20035;-71
2022/04/10 07:48:28;;;;;;;13.48;8.57;;;9.30;99.90;;;;;;5092719;28;20074;-71
2022/04/10 07:50:56;;;;;;;4.65;2.75;;;9.70;99.90;;;;;;5092794;28;20507;-70
2022/04/10 07:53:21;;;;;;;9.90;5.68;;;9.80;99.90;;;;;;5093077;28;20051;-71
2022/04/10 07:55:47;;;;;;;3.83;2.30;;;9.90;99.90;;;;;;5097070;28;20401;-72
2022/04/10 07:58:13;;;;;;;16.85;9.80;;;10.10;99.90;;;;;;5097169;28;20065;-72
2022/04/10 08:00:39;;;;;;;7.20;5.03;;;10.10;99.90;;;;;;5097107;28;20090;-70
2022/04/10 08:03:05;;;;;;;6.50;2.85;;;10.00;99.90;;;;;;5096936;28;20047;-71
2022/04/10 08:05:30;;;;;;;14.52;8.23;;;10.10;99.90;;;;;;5096984;28;20440;-71
2022/04/10 08:07:56;;;;;;;5.05;2.35;;;10.60;99.90;;;;;;5096721;28;20040;-71
2022/04/10 08:10:22;;;;;;;8.95;5.05;;;10.30;99.90;;;;;;5096770;28;20067;-71
2022/04/10 08:12:48;;;;;;;15.52;9.57;;;10.10;99.90;;;;;;5078684;28;20093;-72
2022/04/10 08:15:14;;;;;;;7.45;4.68;;;10.40;99.90;;;;;;5096761;28;20047;-70
2022/04/10 08:17:40;;;;;;;5.45;2.38;;;10.30;99.90;;;;;;5096578;28;20128;-71
2022/04/10 08:20:07;;;;;;;4.82;3.88;;;10.60;99.90;;;;;;5096628;28;20122;-72
2022/04/10 08:22:36;;;;;;;8.05;4.20;;;10.90;99.90;;;;;;5096754;28;20077;-72
2022/04/10 08:25:04;;;;;;;3.95;2.40;;;11.40;99.90;;;;;;5096707;28;20122;-72
2022/04/10 08:27:30;;;;;;;4.03;2.30;;;11.50;99.90;;;;;;5078251;28;20051;-72
2022/04/10 08:29:57;;;;;;;3.97;2.70;;;10.80;99.90;;;;;;5096203;28;20503;-71
2022/04/10 08:32:22;;;;;;;5.03;2.92;;;10.90;99.90;;;;;;5078093;28;20040;-72
2022/04/10 08:34:48;;;;;;;4.20;2.80;;;11.00;99.90;;;;;;5096433;28;20445;-72
2022/04/10 08:37:14;;;;;;;5.05;3.55;;;10.90;99.90;;;;;;5096339;28;20024;-72
2022/04/10 08:39:40;;;;;;;7.20;3.10;;;10.60;99.90;;;;;;5096196;28;20040;-72
2022/04/10 08:42:08;;;;;;;5.00;2.95;;;10.60;99.90;;;;;;5077972;28;20040;-72
2022/04/10 08:44:35;;;;;;;4.05;2.83;;;10.40;99.90;;;;;;5095889;28;20054;-72
2022/04/10 08:47:01;;;;;;;4.63;2.65;;;10.00;99.90;;;;;;5096066;28;20047;-72
2022/04/10 08:49:31;;;;;;;2.92;2.63;;;;;;;;;;5096049;28;20048;-72
2022/04/10 08:51:59;;;;;;;5.53;3.35;;;9.70;99.90;;;;;;5077936;28;20044;-72
2022/04/10 08:54:26;;;;;;;4.13;2.72;;;10.30;99.90;;;;;;5096116;28;20506;-72
2022/04/10 08:56:53;;;;;;;4.57;3.38;;;;;;;;;;5095991;28;20051;-72
2022/04/10 08:59:20;;;;;;;3.83;2.80;;;10.30;99.90;;;;;;5095682;28;20028;-71
2022/04/10 09:01:46;;;;;;;3.50;2.95;;;;;;;;;;5077654;28;20080;-71
2022/04/10 09:04:14;;;;;;;4.97;3.70;;;9.80;99.90;;;;;;5095909;28;20039;-71
2022/04/10 09:06:40;;;;;;;6.55;3.70;;;10.00;99.90;;;;;;5095072;28;20139;-72
2022/04/10 09:09:14;;;;;;;5.78;3.40;;;10.30;99.90;;;;;;5081817;28;20048;-72
2022/04/10 09:11:40;;;;;;;4.85;3.28;;;10.20;99.90;;;;;;5075281;28;20036;-71
2022/04/10 09:14:06;;;;;;;4.72;3.80;;;9.70;99.90;;;;;;5078690;28;20113;-72
2022/04/10 09:16:32;;;;;;;7.28;3.90;;;9.50;99.90;;;;;;5077470;28;20434;-71
2022/04/10 09:19:01;;;;;;;6.22;4.35;;;10.40;99.90;;;;;;5075313;28;20522;-71
2022/04/10 09:21:32;;;;;;;4.97;4.07;;;10.00;99.90;;;;;;5075398;28;20035;-71
2022/04/10 09:24:09;;;;;;;4.93;3.75;;;10.40;99.90;;;;;;5075307;28;20044;-72
2022/04/10 09:26:48;;;;;;;5.53;4.20;;;10.20;99.90;;;;;;5075150;28;20032;-71
2022/04/10 09:29:18;;;;;;;4.47;3.88;;;9.70;99.90;;;;;;5056920;28;20419;-72
2022/04/10 09:31:45;;;;;;;5.18;3.67;;;10.00;99.90;;;;;;5075048;28;20063;-70
2022/04/10 09:34:16;;;;;;;6.72;3.72;;;9.40;99.90;;;;;;5075193;28;20098;-70
2022/04/10 09:36:58;;;;;;;8.50;3.90;;;9.20;99.90;;;;;;5074983;28;20388;-71
2022/04/10 09:39:32;;;;;;;7.63;4.30;;;9.60;99.90;;;;;;5074630;28;20040;-71
2022/04/10 09:42:09;;;;;;;6.45;3.67;;;9.40;99.90;;;;;;5074493;28;20515;-71
2022/04/10 09:44:37;;;;;;;7.43;4.15;;;9.60;98.50;;;;;;5074658;28;20040;-71
2022/04/10 09:47:12;;;;;;;8.98;3.78;;;9.70;99.90;;;;;;5074572;28;20044;-71
2022/04/10 09:49:39;;;;;;;7.00;4.47;;;9.60;99.90;;;;;;5074379;28;20113;-70
2022/04/10 09:52:10;;;;;;;7.53;3.90;;;9.90;99.90;;;;;;5074681;28;20029;-71
2022/04/10 09:54:42;;;;;;;3.85;3.33;;;10.10;99.90;;;;;;5074812;28;20123;-70
2022/04/10 09:57:18;;;;;;;7.75;3.70;;;10.30;99.90;;;;;;5074720;28;20066;-74
2022/04/10 09:59:50;;;;;;;5.38;3.88;;;10.30;99.90;;;;;;5074489;28;20488;-70
2022/04/10 10:02:17;;;;;;;4.63;3.65;;;9.90;99.90;;;;;;5074527;28;20106;-72
2022/04/10 10:04:44;;;;;;;4.90;3.00;;;10.20;99.90;;;;;;5056198;28;20368;-70
2022/04/10 10:07:15;;;;;;;5.68;3.50;;;10.30;99.90;;;;;;5074346;28;20037;-70
2022/04/10 10:09:42;;;;;;;7.25;3.00;;;9.60;99.90;;;;;;5074431;28;20056;-71
2022/04/10 10:12:09;;;;;;;5.00;3.20;;;9.30;98.60;;;;;;5074368;28;20040;-70
2022/04/10 10:14:36;;;;;;;4.68;2.80;;;9.70;99.60;;;;;;5074517;28;20040;-70
2022/04/10 10:17:05;;;;;;;4.60;2.97;;;9.50;96.80;;;;;;5073507;28;20135;-70
2022/04/10 10:19:36;;;;;;;4.13;2.80;;;9.10;97.50;;;;;;5073800;28;20043;-71
2022/04/10 10:22:03;;;;;;;3.38;2.72;;;9.70;99.90;;;;;;5074040;28;20045;-70
2022/04/10 10:24:57;;;;;;;4.80;2.90;;;9.60;99.90;;;;;;5056098;28;20032;-71
2022/04/10 10:27:57;;;;;;;5.20;3.67;;;9.70;99.90;;;;;;5073873;28;20040;-71
2022/04/10 10:30:35;;;;;;;4.25;3.42;;;9.90;99.90;;;;;;5073824;28;20048;-70
2022/04/10 10:33:24;;;;;;;4.57;3.10;;;9.80;98.00;;;;;;5073872;28;20119;-70
2022/04/10 10:35:51;;;;;;;3.22;2.92;;;10.00;97.90;;;;;;5073980;28;20044;-70
2022/04/10 10:38:25;;;;;;;4.40;3.40;;;10.10;99.30;;;;;;5055830;28;20483;-70
2022/04/10 10:40:53;;;;;;;4.40;3.22;;;10.30;99.90;;;;;;5055646;28;20138;-70
2022/04/10 10:43:22;;;;;;;3.95;2.60;;;9.60;96.50;;;;;;5073405;28;20040;-70
2022/04/10 10:45:50;;;;;;;3.88;2.00;;;9.20;97.50;;;;;;5073342;28;20438;-70
2022/04/10 10:48:31;;;;;;;3.13;2.80;;;9.10;96.90;;;;;;5073445;28;20052;-70
2022/04/10 10:51:22;;;;;;;4.10;3.22;;;8.90;99.60;;;;;;5073360;28;20032;-71
2022/04/10 10:53:55;;;;;;;;;;;9.00;99.90;;;;;;5059323;28;20097;-73
2022/04/10 10:56:27;;;;;;;7.03;3.72;;;9.30;99.90;;;;;;5082828;28;19908;-71
2022/04/10 10:58:56;;;;;;;5.72;4.20;;;9.80;99.40;;;;;;5071959;28;20060;-72
2022/04/10 11:01:26;;;;;;;7.50;3.85;;;10.10;99.90;;;;;;5073226;28;20043;-72
2022/04/10 11:04:06;;;;;;;5.50;3.45;;;10.20;99.90;;;;;;5073371;28;20389;-71
2022/04/10 11:06:43;;;;;;;30.40;14.32;;;9.80;99.90;;;;;;5055247;28;20037;-71
2022/04/10 11:09:29;;;;;;;5.55;3.42;;;9.50;99.90;;;;;;5072233;28;20055;-71
2022/04/10 11:11:58;;;;;;;5.47;3.65;;;9.80;99.90;;;;;;5053538;28;20052;-73
2022/04/10 11:14:35;;;;;;;5.22;3.30;;;9.80;99.90;;;;;;5071202;28;20148;-74
2022/04/10 11:17:27;;;;;;;4.07;2.72;;;9.80;99.40;;;;;;5070973;28;20115;-75
2022/04/10 11:19:57;;;;;;;4.20;3.28;;;10.60;99.90;;;;;;5053011;28;20413;-71
2022/04/10 11:22:25;;;;;;;4.45;2.75;;;10.60;99.00;;;;;;5071261;28;20044;-72
2022/04/10 11:24:52;;;;;;;3.47;2.67;;;10.50;97.40;;;;;;5070637;28;20522;-72
2022/04/10 11:27:41;;;;;;;4.78;3.30;;;10.60;98.60;;;;;;5070948;28;20047;-72
2022/04/10 11:30:07;;;;;;;5.93;3.30;;;10.20;98.70;;;;;;5069982;28;20075;-73
2022/04/10 11:33:01;;;;;;;6.38;3.45;;;10.20;99.50;;;;;;5070666;28;20124;-72
2022/04/10 11:35:29;;;;;;;4.53;3.65;;;10.30;99.50;;;;;;5074853;28;20132;-74
2022/04/10 11:37:59;;;;;;;5.22;3.50;;;10.60;99.70;;;;;;5089473;28;20041;-72
2022/04/10 11:40:35;;;;;;;;;;;10.40;99.20;;;;;;5090259;28;20100;-76
2022/04/10 11:43:02;;;;;;;7.72;3.65;;;10.30;96.80;;;;;;5088568;28;19959;-75
2022/04/10 11:45:32;;;;;;;5.82;3.53;;;10.60;99.90;;;;;;5076703;28;20041;-74
2022/04/10 11:47:59;;;;;;;4.75;3.22;;;10.70;98.80;;;;;;5072404;28;20144;-72
2022/04/10 11:50:28;;;;;;;3.58;3.08;;;11.00;99.90;;;;;;5070692;28;20040;-74
2022/04/10 11:52:57;;;;;;;4.18;2.45;;;10.70;99.90;;;;;;5070926;28;20055;-74
2022/04/10 11:55:38;;;;;;;3.38;2.35;;;10.20;97.40;;;;;;5072638;28;20448;-72
2022/04/10 11:58:15;;;;;;;3.55;2.22;;;10.20;96.00;;;;;;5072695;28;20051;-78
2022/04/10 12:00:51;;;;;;;2.50;2.30;;;10.60;96.00;;;;;;5072431;28;20047;-74
2022/04/10 12:03:26;;;;;;;4.00;3.17;;;10.50;96.30;;;;;;5071715;28;20557;-78
2022/04/10 12:05:53;;;;;;;4.68;3.15;;;10.70;99.40;;;;;;5070306;28;20452;-73
2022/04/10 12:08:19;;;;;;;5.47;2.88;;;10.70;98.10;;;;;;5069455;28;20044;-70
2022/04/10 12:10:59;;;;;;;3.15;2.83;;;10.80;98.90;;;;;;5067102;28;20536;-68
2022/04/10 12:13:39;;;;;;;4.73;2.77;;;10.60;98.70;;;;;;5069969;28;20072;-69
2022/04/10 12:16:18;;;;;;;4.93;3.00;;;11.00;99.90;;;;;;5070021;28;20266;-68
2022/04/10 12:18:52;;;;;;;2.28;2.05;;;10.70;98.20;;;;;;5070047;28;20075;-69
2022/04/10 12:21:19;;;;;;;6.80;3.08;;;10.50;98.70;;;;;;5079417;28;20072;-68
2022/04/10 12:23:47;;;;;;;4.65;2.20;;;10.30;97.20;;;;;;5081983;28;20055;-69
2022/04/10 12:26:14;;;;;;;4.97;2.50;;;10.10;98.70;;;;;;5086905;28;20124;-69
2022/04/10 12:28:44;;;;;;;4.18;2.38;;;10.60;96.30;;;;;;5084058;28;20063;-69
2022/04/10 12:31:11;;;;;;;;;;;10.70;96.20;;;;;;5078014;28;20040;-68
2022/04/10 12:33:37;;;;;;;4.80;2.45;;;10.70;96.30;;;;;;5080763;28;19912;-68
2022/04/10 12:36:20;;;;;;;4.65;2.53;;;10.50;97.40;;;;;;5085293;28;20154;-68
2022/04/10 12:38:51;;;;;;;4.82;1.98;;;10.80;96.70;;;;;;5089431;28;20043;-68
2022/04/10 12:41:26;;;;;;;4.13;2.38;;;10.90;96.30;;;;;;5092544;28;20395;-68
2022/04/10 12:44:03;;;;;;;3.33;2.00;;;10.60;95.80;;;;;;5091218;28;20508;-68
2022/04/10 12:46:37;;;;;;;3.15;1.75;;;10.50;93.80;;;;;;5075757;28;20044;-68
2022/04/10 12:49:13;;;;;;;1.95;1.70;;;11.10;97.90;;;;;;5072916;28;20381;-68
2022/04/10 12:51:56;;;;;;;3.28;1.75;;;11.00;94.00;;;;;;5073371;28;20036;-68
2022/04/10 12:54:40;;;;;;;2.65;1.90;;;11.00;94.70;;;;;;5072805;28;20428;-68
2022/04/10 12:57:26;;;;;;;2.22;1.67;;;10.70;94.30;;;;;;5073557;28;20036;-68
2022/04/10 12:59:52;;;;;;;2.97;2.00;;;10.80;95.90;;;;;;5055167;28;20434;-68
2022/04/10 13:02:23;;;;;;;4.82;1.88;;;11.80;98.30;;;;;;5073456;28;20036;-68
2022/04/10 13:04:57;;;;;;;2.22;1.48;;;11.70;96.10;;;;;;5073179;28;20045;-68